Time;durP1;ratioP1;P1;durP2;ratioP2;P2;SDS_P1;SDS_P2;PMS_P1;PMS_P2;Temp;Humidity;BMP_temperature;BMP_pressure;BME280_temperature;BME280_humidity;BME280_pressure;Samples;Min_cycle;Max_cycle;Signal;HPM_P1;HPM_P2
2022/06/19 00:00:00;;;;;;;16.85;3.40;;;24.60;39.50;;;;;;5037231;28;20044;-79
2022/06/19 00:02:27;;;;;;;19.42;4.10;;;24.60;39.60;;;;;;5036978;28;20041;-79
2022/06/19 00:04:55;;;;;;;19.15;3.78;;;24.60;39.50;;;;;;5020207;28;20026;-79
2022/06/19 00:07:21;;;;;;;16.63;3.95;;;24.60;39.80;;;;;;5036531;28;20092;-79
2022/06/19 00:09:48;;;;;;;17.20;3.90;;;24.70;39.30;;;;;;5036559;28;20021;-79
2022/06/19 00:12:15;;;;;;;16.25;3.20;;;24.70;39.30;;;;;;5036304;28;20112;-79
2022/06/19 00:14:41;;;;;;;11.77;3.40;;;24.70;39.20;;;;;;5036575;28;20029;-79
2022/06/19 00:17:07;;;;;;;24.17;4.10;;;24.70;39.30;;;;;;5036523;28;20074;-79
2022/06/19 00:19:33;;;;;;;18.55;3.63;;;24.70;39.40;;;;;;5036335;28;20115;-79
2022/06/19 00:22:00;;;;;;;15.45;3.40;;;24.70;39.50;;;;;;5054194;28;20071;-78
2022/06/19 00:24:26;;;;;;;16.98;3.60;;;24.60;39.70;;;;;;5036144;28;20445;-78
2022/06/19 00:26:51;;;;;;;15.98;3.67;;;24.50;39.80;;;;;;5036023;28;20394;-78
2022/06/19 00:29:17;;;;;;;10.45;3.05;;;24.40;39.90;;;;;;5035563;28;20088;-78
2022/06/19 00:31:42;;;;;;;19.73;3.92;;;24.40;39.80;;;;;;5036111;28;20051;-78
2022/06/19 00:34:08;;;;;;;16.35;3.40;;;24.40;39.90;;;;;;5036143;28;20028;-78
2022/06/19 00:36:34;;;;;;;21.02;4.50;;;24.40;39.90;;;;;;5035938;28;20375;-77
2022/06/19 00:39:00;;;;;;;13.73;3.63;;;24.40;39.70;;;;;;5035801;28;20056;-77
2022/06/19 00:41:35;;;;;;;17.25;3.65;;;24.40;39.70;;;;;;5053346;28;20119;-76
2022/06/19 00:44:07;;;;;;;13.90;3.90;;;24.50;39.50;;;;;;5035870;28;20025;-78
2022/06/19 00:46:44;;;;;;;12.10;3.53;;;24.50;39.40;;;;;;5036099;28;20025;-80
2022/06/19 00:49:14;;;;;;;22.35;4.35;;;24.50;39.20;;;;;;5035729;28;20021;-79
2022/06/19 00:51:39;;;;;;;19.02;3.47;;;24.50;39.10;;;;;;5019456;28;20059;-80
2022/06/19 00:54:07;;;;;;;18.65;4.07;;;24.60;39.30;;;;;;5053422;28;20470;-80
2022/06/19 00:56:33;;;;;;;25.40;4.22;;;24.50;39.40;;;;;;5035040;28;20108;-79
2022/06/19 00:58:58;;;;;;;21.25;4.13;;;24.60;39.10;;;;;;5035582;28;20539;-79
2022/06/19 01:01:27;;;;;;;17.95;4.03;;;24.50;39.10;;;;;;5053336;28;20074;-79
2022/06/19 01:04:09;;;;;;;18.30;4.53;;;24.50;39.20;;;;;;5035638;28;20040;-79
2022/06/19 01:06:35;;;;;;;24.80;4.40;;;24.60;39.30;;;;;;5035459;28;20363;-79
2022/06/19 01:09:01;;;;;;;13.70;3.65;;;24.50;39.40;;;;;;5035195;28;20075;-79
2022/06/19 01:11:30;;;;;;;16.45;3.80;;;24.50;39.70;;;;;;5035458;28;20025;-79
2022/06/19 01:13:56;;;;;;;13.88;3.63;;;24.40;39.80;;;;;;5035391;28;20025;-77
2022/06/19 01:16:22;;;;;;;17.48;4.32;;;24.30;40.10;;;;;;5035494;28;20041;-79
2022/06/19 01:18:48;;;;;;;17.58;3.67;;;24.30;41.30;;;;;;5035124;28;20039;-78
2022/06/19 01:21:24;;;;;;;16.65;4.15;;;24.20;40.60;;;;;;5018975;28;20071;-79
2022/06/19 01:23:50;;;;;;;13.27;2.80;;;24.10;41.00;;;;;;5035326;28;20052;-79
2022/06/19 01:26:18;;;;;;;16.65;3.92;;;24.00;41.30;;;;;;5035326;28;20067;-79
2022/06/19 01:28:46;;;;;;;15.13;3.58;;;23.90;42.70;;;;;;5035102;28;20040;-79
2022/06/19 01:31:16;;;;;;;13.60;3.17;;;23.80;42.50;;;;;;5035253;28;20075;-80
2022/06/19 01:34:28;;;;;;;16.75;4.03;;;23.60;43.30;;;;;;5035095;28;20120;-78
2022/06/19 01:37:13;;;;;;;18.20;4.45;;;23.40;44.10;;;;;;5035006;28;20021;-78
2022/06/19 01:39:43;;;;;;;14.65;3.25;;;23.20;45.20;;;;;;5037835;28;20120;-79
2022/06/19 01:42:11;;;;;;;20.40;3.80;;;23.00;45.60;;;;;;5060445;28;20096;-79
2022/06/19 01:44:38;;;;;;;16.42;4.18;;;22.80;46.10;;;;;;5036859;28;20079;-80
2022/06/19 01:47:04;;;;;;;21.08;4.50;;;22.80;46.00;;;;;;5035359;28;20025;-79
2022/06/19 01:49:32;;;;;;;17.90;3.60;;;22.70;46.20;;;;;;5034895;28;20021;-79
2022/06/19 01:51:58;;;;;;;14.35;3.40;;;22.70;45.90;;;;;;5035315;28;20495;-79
2022/06/19 01:54:28;;;;;;;12.75;3.30;;;22.70;46.10;;;;;;5034697;28;20030;-80
2022/06/19 01:56:54;;;;;;;12.90;2.97;;;22.70;46.00;;;;;;5034942;28;20037;-79
2022/06/19 01:59:27;;;;;;;10.25;3.30;;;22.90;45.80;;;;;;5034887;28;20187;-79
2022/06/19 02:01:54;;;;;;;10.93;3.10;;;22.90;45.80;;;;;;5034907;28;20033;-79
2022/06/19 02:04:23;;;;;;;11.45;2.78;;;23.00;45.60;;;;;;5034681;28;20095;-79
2022/06/19 02:06:53;;;;;;;19.38;3.88;;;23.10;45.50;;;;;;5052414;28;20029;-79
2022/06/19 02:09:23;;;;;;;13.77;3.47;;;23.20;45.40;;;;;;5037665;28;20107;-78
2022/06/19 02:11:50;;;;;;;20.30;4.07;;;23.10;45.40;;;;;;5038743;28;20021;-78
2022/06/19 02:14:17;;;;;;;22.27;3.70;;;23.00;45.70;;;;;;5038603;28;20033;-78
2022/06/19 02:16:46;;;;;;;23.55;4.22;;;22.80;46.30;;;;;;5038625;28;20017;-78
2022/06/19 02:19:11;;;;;;;22.55;3.90;;;22.70;46.70;;;;;;5038457;28;20427;-78
2022/06/19 02:21:41;;;;;;;17.95;3.92;;;22.60;47.20;;;;;;5038511;28;20049;-78
2022/06/19 02:24:10;;;;;;;16.30;4.18;;;22.50;47.60;;;;;;5038672;28;20075;-78
2022/06/19 02:26:38;;;;;;;17.60;3.90;;;22.40;47.70;;;;;;5038531;28;20047;-78
2022/06/19 02:29:09;;;;;;;16.73;3.65;;;22.40;47.80;;;;;;5038502;28;20021;-78
2022/06/19 02:31:36;;;;;;;20.67;3.42;;;22.40;48.00;;;;;;5038365;28;20052;-78
2022/06/19 02:34:07;;;;;;;18.23;4.57;;;22.30;48.10;;;;;;5038169;28;20032;-78
2022/06/19 02:36:41;;;;;;;19.27;4.07;;;22.30;48.10;;;;;;5038357;28;20029;-78
2022/06/19 02:39:31;;;;;;;11.85;3.80;;;22.30;48.30;;;;;;5038448;28;20430;-78
2022/06/19 02:42:30;;;;;;;17.42;3.90;;;22.30;48.40;;;;;;5038064;28;20508;-78
2022/06/19 02:45:02;;;;;;;22.63;4.38;;;22.30;48.60;;;;;;5029018;28;20136;-78
2022/06/19 02:47:32;;;;;;;16.63;3.70;;;22.30;48.40;;;;;;5018525;28;20080;-79
2022/06/19 02:49:57;;;;;;;23.98;4.55;;;22.30;48.50;;;;;;5018342;28;20032;-78
2022/06/19 02:52:23;;;;;;;25.67;3.70;;;22.30;48.70;;;;;;5018004;28;20112;-78
2022/06/19 02:54:49;;;;;;;15.63;3.90;;;22.20;48.90;;;;;;5018006;28;20030;-78
2022/06/19 02:57:16;;;;;;;20.70;4.03;;;22.20;49.00;;;;;;5018229;28;20053;-78
2022/06/19 02:59:41;;;;;;;15.82;4.47;;;22.30;49.00;;;;;;5018410;28;20026;-78
2022/06/19 03:02:09;;;;;;;17.83;4.40;;;22.10;49.10;;;;;;5017990;28;20034;-78
2022/06/19 03:04:38;;;;;;;16.08;3.72;;;22.10;49.20;;;;;;5019982;28;20022;-77
2022/06/19 03:07:04;;;;;;;19.45;3.80;;;22.20;49.30;;;;;;5041346;28;20026;-77
2022/06/19 03:09:29;;;;;;;19.27;4.10;;;22.20;49.90;;;;;;5039370;28;20037;-78
2022/06/19 03:11:55;;;;;;;17.88;3.97;;;22.10;49.30;;;;;;5036363;28;20026;-78
2022/06/19 03:14:21;;;;;;;24.45;4.05;;;22.10;49.30;;;;;;5019902;28;20477;-78
2022/06/19 03:16:46;;;;;;;17.55;3.80;;;22.10;49.40;;;;;;5017676;28;20057;-78
2022/06/19 03:19:13;;;;;;;16.10;4.20;;;22.10;49.40;;;;;;5000974;28;20029;-78
2022/06/19 03:21:38;;;;;;;20.13;3.85;;;22.10;49.50;;;;;;5016922;28;20040;-78
2022/06/19 03:24:05;;;;;;;22.00;3.95;;;22.10;49.60;;;;;;5035264;28;20022;-78
2022/06/19 03:26:30;;;;;;;16.48;3.35;;;22.10;49.60;;;;;;5017691;28;20105;-78
2022/06/19 03:28:57;;;;;;;20.77;4.05;;;22.10;49.60;;;;;;5017258;28;20108;-78
2022/06/19 03:31:25;;;;;;;16.73;4.00;;;22.10;50.00;;;;;;5017479;28;20025;-78
2022/06/19 03:33:51;;;;;;;23.83;3.97;;;22.00;50.10;;;;;;5033700;28;20026;-78
2022/06/19 03:36:17;;;;;;;20.23;3.88;;;22.00;50.20;;;;;;5000992;28;20521;-78
2022/06/19 03:38:44;;;;;;;19.90;4.57;;;22.10;49.90;;;;;;5017371;28;20053;-78
2022/06/19 03:41:10;;;;;;;16.30;4.18;;;22.10;50.00;;;;;;5016611;28;20044;-78
2022/06/19 03:43:37;;;;;;;16.98;4.07;;;22.00;50.30;;;;;;5017121;28;20029;-78
2022/06/19 03:46:12;;;;;;;17.27;4.32;;;21.90;50.70;;;;;;5035214;28;20402;-78
2022/06/19 03:48:39;;;;;;;20.33;4.10;;;21.80;50.80;;;;;;5036491;28;20037;-78
2022/06/19 03:51:05;;;;;;;21.27;3.80;;;21.90;51.00;;;;;;5054893;28;20029;-78
2022/06/19 03:53:32;;;;;;;19.08;3.78;;;21.80;51.20;;;;;;5053505;28;20083;-78
2022/06/19 03:55:58;;;;;;;18.35;3.95;;;21.80;51.20;;;;;;5053516;28;20025;-78
2022/06/19 03:58:45;;;;;;;16.80;4.25;;;21.90;51.20;;;;;;5036838;28;20036;-78
2022/06/19 04:01:10;;;;;;;;;;;21.80;51.20;;;;;;5054517;28;20036;-78
2022/06/19 04:03:35;;;;;;;18.83;4.35;;;21.80;51.30;;;;;;5070126;28;19988;-78
2022/06/19 04:06:01;;;;;;;20.70;4.15;;;21.70;51.60;;;;;;5036212;28;20087;-78
2022/06/19 04:08:28;;;;;;;24.40;4.53;;;21.80;51.50;;;;;;5036649;28;20021;-78
2022/06/19 04:10:54;;;;;;;11.90;4.18;;;21.80;51.30;;;;;;5053844;28;20088;-78
2022/06/19 04:13:20;;;;;;;17.15;3.85;;;21.80;52.40;;;;;;5061159;28;20022;-78
2022/06/19 04:15:46;;;;;;;17.52;4.20;;;21.90;51.50;;;;;;5058806;28;20111;-78
2022/06/19 04:18:11;;;;;;;19.08;4.18;;;21.90;51.40;;;;;;5036547;28;20056;-78
2022/06/19 04:20:37;;;;;;;21.05;4.75;;;21.90;51.60;;;;;;5036275;28;20486;-78
2022/06/19 04:23:02;;;;;;;19.58;4.20;;;22.00;51.30;;;;;;5036355;28;20430;-78
2022/06/19 04:25:28;;;;;;;21.83;5.00;;;21.90;51.40;;;;;;5036205;28;20029;-79
2022/06/19 04:27:54;;;;;;;19.33;4.20;;;22.00;51.60;;;;;;5052745;28;20120;-78
2022/06/19 04:30:19;;;;;;;17.73;4.65;;;22.00;51.50;;;;;;5035998;28;20021;-78
2022/06/19 04:32:45;;;;;;;21.27;4.35;;;22.00;51.70;;;;;;5052413;28;20075;-78
2022/06/19 04:35:10;;;;;;;13.13;4.03;;;22.00;51.80;;;;;;5036155;28;20040;-78
2022/06/19 04:37:36;;;;;;;21.33;4.03;;;22.00;51.90;;;;;;5036060;28;20025;-78
2022/06/19 04:40:02;;;;;;;21.30;4.40;;;22.00;52.20;;;;;;5035715;28;20064;-78
2022/06/19 04:42:28;;;;;;;13.95;3.72;;;22.00;52.10;;;;;;5035659;28;20504;-78
2022/06/19 04:44:53;;;;;;;17.52;4.07;;;22.10;52.00;;;;;;5035428;28;20060;-78
2022/06/19 04:47:19;;;;;;;15.82;4.38;;;22.20;51.90;;;;;;5035531;28;20056;-79
2022/06/19 04:49:44;;;;;;;19.70;4.47;;;22.30;51.80;;;;;;5035857;28;20024;-78
2022/06/19 04:52:10;;;;;;;16.67;4.00;;;22.30;51.90;;;;;;5052668;28;20025;-78
2022/06/19 04:54:35;;;;;;;13.38;3.97;;;22.40;51.80;;;;;;5035795;28;20025;-78
2022/06/19 04:57:01;;;;;;;20.35;4.03;;;22.50;51.80;;;;;;5035618;28;20358;-78
2022/06/19 04:59:27;;;;;;;14.35;4.47;;;22.60;51.80;;;;;;5035599;28;20021;-78
2022/06/19 05:01:52;;;;;;;21.20;4.47;;;22.80;51.30;;;;;;5035360;28;20409;-78
2022/06/19 05:04:18;;;;;;;14.70;4.13;;;22.80;51.00;;;;;;5035644;28;20025;-78
2022/06/19 05:06:43;;;;;;;19.95;4.15;;;22.90;51.00;;;;;;5035483;28;20029;-78
2022/06/19 05:09:09;;;;;;;22.33;5.03;;;23.00;50.90;;;;;;5035353;28;20021;-79
2022/06/19 05:11:35;;;;;;;19.40;4.30;;;23.00;50.70;;;;;;5035027;28;20053;-79
2022/06/19 05:14:01;;;;;;;17.77;3.95;;;23.10;50.20;;;;;;5035249;28;20109;-78
2022/06/19 05:16:27;;;;;;;15.00;3.80;;;23.10;50.50;;;;;;5035069;28;20127;-79
2022/06/19 05:18:55;;;;;;;19.00;4.38;;;23.20;50.00;;;;;;5035220;28;20504;-78
2022/06/19 05:21:25;;;;;;;21.23;4.43;;;23.30;50.00;;;;;;5034873;28;20033;-79
2022/06/19 05:23:52;;;;;;;14.70;3.83;;;23.40;50.00;;;;;;5035167;28;20021;-79
2022/06/19 05:26:30;;;;;;;20.33;4.30;;;23.50;49.80;;;;;;5051713;28;20040;-78
2022/06/19 05:28:57;;;;;;;12.07;3.92;;;23.70;49.90;;;;;;5018469;28;20077;-78
2022/06/19 05:31:24;;;;;;;19.42;4.22;;;23.80;49.80;;;;;;5035236;28;20382;-78
2022/06/19 05:33:50;;;;;;;20.13;4.30;;;24.00;49.40;;;;;;5035272;28;20417;-78
2022/06/19 05:36:16;;;;;;;18.23;4.70;;;24.20;49.30;;;;;;5034703;28;20025;-78
2022/06/19 05:38:42;;;;;;;13.52;4.28;;;24.30;49.60;;;;;;5034920;28;20466;-78
2022/06/19 05:41:08;;;;;;;16.52;4.78;;;24.30;49.30;;;;;;5051386;28;20520;-79
2022/06/19 05:43:35;;;;;;;18.70;4.90;;;24.50;49.30;;;;;;5034442;28;20025;-78
2022/06/19 05:46:04;;;;;;;16.30;4.78;;;24.60;49.00;;;;;;5034618;28;20060;-78
2022/06/19 05:48:30;;;;;;;14.63;4.43;;;24.70;49.00;;;;;;5034721;28;20017;-78
2022/06/19 05:51:08;;;;;;;12.95;4.20;;;24.80;48.80;;;;;;5034502;28;20032;-79
2022/06/19 05:53:38;;;;;;;16.90;4.57;;;25.00;48.90;;;;;;5034155;28;20033;-78
2022/06/19 05:56:04;;;;;;;14.90;4.85;;;25.20;48.60;;;;;;5034691;28;20377;-79
2022/06/19 05:58:30;;;;;;;21.30;5.35;;;25.30;48.70;;;;;;5034790;28;20029;-79
2022/06/19 06:00:56;;;;;;;22.88;4.95;;;25.30;48.80;;;;;;5034540;28;20139;-78
2022/06/19 06:03:23;;;;;;;18.27;4.13;;;25.30;49.00;;;;;;5034594;28;20077;-79
2022/06/19 06:05:49;;;;;;;16.52;4.72;;;25.50;49.20;;;;;;5034413;28;20025;-79
2022/06/19 06:08:16;;;;;;;15.32;4.53;;;25.70;49.10;;;;;;5034239;28;20029;-79
2022/06/19 06:10:41;;;;;;;15.45;4.70;;;25.80;49.00;;;;;;5034204;28;20025;-79
2022/06/19 06:13:07;;;;;;;18.13;4.57;;;25.90;49.10;;;;;;5034563;28;20040;-79
2022/06/19 06:15:33;;;;;;;16.23;4.85;;;26.10;49.40;;;;;;5034554;28;20083;-81
2022/06/19 06:18:00;;;;;;;15.07;5.43;;;26.20;49.20;;;;;;5034420;28;20393;-78
2022/06/19 06:20:26;;;;;;;12.60;4.78;;;26.40;49.10;;;;;;5034661;28;20029;-78
2022/06/19 06:22:52;;;;;;;18.05;5.47;;;26.50;48.00;;;;;;5039432;28;20029;-81
2022/06/19 06:25:18;;;;;;;16.58;6.10;;;26.70;47.80;;;;;;5044115;28;20021;-81
2022/06/19 06:27:44;;;;;;;16.27;5.43;;;26.90;47.70;;;;;;5039400;28;20025;-80
2022/06/19 06:30:12;;;;;;;15.82;5.28;;;27.00;47.70;;;;;;5034503;28;20028;-80
2022/06/19 06:32:39;;;;;;;14.90;5.60;;;27.10;47.30;;;;;;5034453;28;20060;-80
2022/06/19 06:35:05;;;;;;;14.85;5.07;;;27.30;47.20;;;;;;5034249;28;20028;-80
2022/06/19 06:37:31;;;;;;;16.90;5.55;;;27.40;46.90;;;;;;5051937;28;20152;-80
2022/06/19 06:39:58;;;;;;;13.43;5.25;;;27.50;46.60;;;;;;5034412;28;20119;-81
2022/06/19 06:42:23;;;;;;;15.85;5.43;;;27.70;47.10;;;;;;5034274;28;20037;-80
2022/06/19 06:44:49;;;;;;;18.98;5.88;;;27.80;45.80;;;;;;5050385;28;20063;-80
2022/06/19 06:47:15;;;;;;;20.00;6.82;;;28.00;44.60;;;;;;5034148;28;20068;-79
2022/06/19 06:49:42;;;;;;;18.80;6.88;;;28.10;42.80;;;;;;5052042;28;20036;-81
2022/06/19 06:52:09;;;;;;;24.52;7.57;;;28.40;40.20;;;;;;5034061;28;20025;-81
2022/06/19 06:54:36;;;;;;;24.73;6.97;;;28.50;38.70;;;;;;5034550;28;20171;-81
2022/06/19 06:57:02;;;;;;;14.55;6.53;;;28.80;37.10;;;;;;5037912;28;20029;-81
2022/06/19 06:59:28;;;;;;;18.38;7.15;;;29.00;37.20;;;;;;5037523;28;20136;-80
2022/06/19 07:01:55;;;;;;;18.42;7.15;;;29.20;36.00;;;;;;5055443;28;20043;-81
2022/06/19 07:04:21;;;;;;;25.20;7.85;;;29.40;35.20;;;;;;5037208;28;20025;-80
2022/06/19 07:06:47;;;;;;;18.40;7.43;;;29.60;35.60;;;;;;5055354;28;20043;-80
2022/06/19 07:09:12;;;;;;;19.17;7.35;;;29.70;34.00;;;;;;5037452;28;20107;-80
2022/06/19 07:11:41;;;;;;;17.50;6.50;;;29.70;33.60;;;;;;5037683;28;20075;-80
2022/06/19 07:14:07;;;;;;;17.33;7.80;;;29.60;34.20;;;;;;5037452;28;20067;-80
2022/06/19 07:16:34;;;;;;;17.50;6.72;;;29.50;34.80;;;;;;5037347;28;20078;-79
2022/06/19 07:18:59;;;;;;;14.52;6.72;;;29.40;34.50;;;;;;5037341;28;20021;-82
2022/06/19 07:21:25;;;;;;;21.88;7.78;;;29.40;34.70;;;;;;5037124;28;20033;-82
2022/06/19 07:23:51;;;;;;;25.38;7.20;;;29.40;35.20;;;;;;5037543;28;20029;-80
2022/06/19 07:26:18;;;;;;;18.58;7.45;;;29.40;34.70;;;;;;5037280;28;20040;-79
2022/06/19 07:28:46;;;;;;;22.77;7.22;;;29.50;34.80;;;;;;5036913;28;20128;-82
2022/06/19 07:31:12;;;;;;;22.00;7.00;;;29.60;34.80;;;;;;5053909;28;20164;-81
2022/06/19 07:33:39;;;;;;;19.90;6.70;;;29.70;34.90;;;;;;5036951;28;20025;-80
2022/06/19 07:36:07;;;;;;;17.63;6.57;;;29.90;34.50;;;;;;5037195;28;20021;-80
2022/06/19 07:38:33;;;;;;;13.20;6.07;;;30.00;35.00;;;;;;5055045;28;20063;-79
2022/06/19 07:40:58;;;;;;;15.95;6.38;;;30.10;35.20;;;;;;5036920;28;20470;-81
2022/06/19 07:43:26;;;;;;;13.32;6.40;;;30.30;35.30;;;;;;5037171;28;20433;-81
2022/06/19 07:45:54;;;;;;;13.20;5.82;;;30.30;34.30;;;;;;5036746;28;20045;-82
2022/06/19 07:51:04;;;;;;;16.43;6.63;;;30.50;33.70;;;;;;5054704;28;20581;-80
2022/06/19 07:53:30;;;;;;;19.73;6.63;;;30.50;34.50;;;;;;5036901;28;20359;-79
2022/06/19 07:55:55;;;;;;;18.85;5.95;;;30.60;34.40;;;;;;5036525;28;20023;-80
2022/06/19 07:58:21;;;;;;;15.20;5.88;;;30.60;34.90;;;;;;5036332;28;20029;-82
2022/06/19 08:00:47;;;;;;;16.55;6.63;;;30.70;34.40;;;;;;5036585;28;20029;-81
2022/06/19 08:03:12;;;;;;;13.50;6.05;;;30.70;33.50;;;;;;5036808;28;20029;-82
2022/06/19 08:05:40;;;;;;;20.67;6.30;;;30.80;33.80;;;;;;5035983;28;20099;-81
2022/06/19 08:08:12;;;;;;;14.48;5.88;;;30.80;33.20;;;;;;5036723;28;20115;-80
2022/06/19 08:10:40;;;;;;;19.55;5.88;;;30.80;33.50;;;;;;5036603;28;20080;-81
2022/06/19 08:13:06;;;;;;;16.02;5.40;;;30.80;32.90;;;;;;5051409;28;20025;-80
2022/06/19 08:15:34;;;;;;;18.20;6.40;;;30.80;32.60;;;;;;5069482;28;20394;-81
2022/06/19 08:18:00;;;;;;;18.90;6.30;;;30.80;33.10;;;;;;5038017;28;20072;-79
2022/06/19 08:20:26;;;;;;;16.65;6.18;;;30.80;33.00;;;;;;5036476;28;20083;-82
2022/06/19 08:22:52;;;;;;;17.17;5.80;;;30.80;33.20;;;;;;5054075;28;20474;-80
2022/06/19 08:25:20;;;;;;;12.85;5.57;;;30.90;32.90;;;;;;5036294;28;20021;-81
2022/06/19 08:27:49;;;;;;;14.38;5.93;;;31.00;33.20;;;;;;5036306;28;20025;-80
2022/06/19 08:30:28;;;;;;;20.23;6.00;;;31.10;32.70;;;;;;5036434;28;20031;-81
2022/06/19 08:32:55;;;;;;;12.65;6.25;;;31.10;32.90;;;;;;5036376;28;20039;-81
2022/06/19 08:35:22;;;;;;;17.73;5.68;;;31.30;32.20;;;;;;5036142;28;20021;-81
2022/06/19 08:37:54;;;;;;;20.73;6.28;;;31.40;32.50;;;;;;5036161;28;20091;-81
2022/06/19 08:40:22;;;;;;;14.43;5.95;;;31.50;32.50;;;;;;5052642;28;20423;-81
2022/06/19 08:43:21;;;;;;;17.23;6.68;;;31.50;32.30;;;;;;5036236;28;20033;-80
2022/06/19 08:46:06;;;;;;;16.27;6.80;;;31.50;30.30;;;;;;5011849;28;20128;-80
2022/06/19 08:48:53;;;;;;;21.25;5.65;;;31.40;31.30;;;;;;5016029;28;20120;-81
2022/06/19 08:51:38;;;;;;;17.70;5.90;;;31.40;32.00;;;;;;5033736;28;20366;-79
2022/06/19 08:54:21;;;;;;;16.95;6.20;;;31.50;31.80;;;;;;5016034;28;20037;-80
2022/06/19 08:57:01;;;;;;;18.13;5.22;;;31.60;31.10;;;;;;5016019;28;20084;-81
2022/06/19 08:59:39;;;;;;;17.75;6.68;;;31.60;30.30;;;;;;5032809;28;20025;-80
2022/06/19 09:02:24;;;;;;;15.95;5.85;;;31.70;31.30;;;;;;5015883;28;20128;-80
2022/06/19 09:08:26;;;;;;;;;;;31.90;29.90;;;;;;4934526;29;20066;-81
2022/06/19 09:11:19;;;;;;;27.65;6.50;;;32.00;30.60;;;;;;4933984;29;19950;-80
2022/06/19 09:14:01;;;;;;;13.70;5.85;;;32.00;31.40;;;;;;4988052;28;20029;-80
2022/06/19 09:16:53;;;;;;;20.92;6.15;;;32.10;29.00;;;;;;5033373;28;20104;-81
2022/06/19 09:19:47;;;;;;;20.17;6.55;;;32.30;29.20;;;;;;5031496;28;20382;-81
2022/06/19 09:23:00;;;;;;;22.43;7.00;;;32.30;29.20;;;;;;5015638;28;20041;-81
2022/06/19 09:25:57;;;;;;;22.42;6.25;;;32.20;29.10;;;;;;5008942;28;20049;-81
2022/06/19 09:28:39;;;;;;;21.25;6.40;;;32.20;29.70;;;;;;5015384;28;20030;-80
2022/06/19 09:31:07;;;;;;;16.42;6.43;;;32.10;28.60;;;;;;5015595;28;20022;-80
2022/06/19 09:33:50;;;;;;;20.10;6.90;;;32.10;28.60;;;;;;5015491;28;20101;-81
2022/06/19 09:36:30;;;;;;;23.63;6.07;;;32.00;29.70;;;;;;5015631;28;20025;-81
2022/06/19 09:39:15;;;;;;;20.77;6.75;;;31.90;29.10;;;;;;5015492;28;20566;-79
2022/06/19 09:41:43;;;;;;;;;;;32.00;29.00;;;;;;5015744;28;20065;-81
2022/06/19 09:44:25;;;;;;;22.65;6.57;;;32.10;28.80;;;;;;5001426;28;19909;-79
2022/06/19 09:47:01;;;;;;;25.67;7.00;;;32.20;28.10;;;;;;5034793;28;20029;-80
2022/06/19 09:49:39;;;;;;;20.90;7.03;;;32.10;28.60;;;;;;5035299;28;20029;-81
2022/06/19 09:52:18;;;;;;;21.55;6.68;;;32.20;28.10;;;;;;5035082;28;20117;-81
2022/06/19 09:54:53;;;;;;;24.05;6.47;;;32.40;28.70;;;;;;5035123;28;20456;-81
2022/06/19 09:57:38;;;;;;;24.80;7.07;;;32.50;27.60;;;;;;5051524;28;20481;-79
2022/06/19 10:00:12;;;;;;;18.20;6.55;;;32.50;25.60;;;;;;5030358;28;20075;-79
2022/06/19 10:02:53;;;;;;;21.07;6.50;;;32.40;25.70;;;;;;5034971;28;20450;-79
2022/06/19 10:05:38;;;;;;;18.35;6.68;;;32.50;25.70;;;;;;5052936;28;20025;-79
2022/06/19 10:08:23;;;;;;;15.48;6.38;;;32.70;26.40;;;;;;5052605;28;20029;-79
2022/06/19 10:10:58;;;;;;;19.70;6.82;;;32.80;25.20;;;;;;5051653;28;20029;-81
2022/06/19 10:13:30;;;;;;;24.42;7.00;;;32.80;25.10;;;;;;5035052;28;20450;-80
2022/06/19 10:15:59;;;;;;;24.05;6.30;;;32.90;25.30;;;;;;5034978;28;20024;-80
2022/06/19 10:18:35;;;;;;;29.60;6.78;;;33.00;27.10;;;;;;5034748;28;20025;-80
2022/06/19 10:21:05;;;;;;;19.55;6.50;;;33.20;25.00;;;;;;5051181;28;20029;-80
2022/06/19 10:23:50;;;;;;;15.32;6.63;;;33.20;25.90;;;;;;5034841;28;20052;-80
2022/06/19 10:26:33;;;;;;;18.17;7.10;;;33.50;28.60;;;;;;5034973;28;20021;-78
2022/06/19 10:29:15;;;;;;;23.08;7.07;;;33.70;26.70;;;;;;5035240;28;20025;-80
2022/06/19 10:31:58;;;;;;;20.92;7.18;;;33.70;26.70;;;;;;5056231;28;20520;-80
2022/06/19 10:35:02;;;;;;;17.50;6.22;;;33.60;26.10;;;;;;5038515;28;20033;-79
2022/06/19 10:38:01;;;;;;;20.80;7.15;;;33.20;25.50;;;;;;5038619;28;20029;-80
2022/06/19 10:41:03;;;;;;;23.65;7.28;;;33.10;23.40;;;;;;5038581;28;20084;-80
2022/06/19 10:43:54;;;;;;;19.52;7.15;;;33.30;22.40;;;;;;5020947;28;20105;-79
2022/06/19 10:46:23;;;;;;;22.48;7.40;;;33.00;22.10;;;;;;5058499;28;20117;-80
2022/06/19 10:49:18;;;;;;;21.50;6.80;;;32.70;22.70;;;;;;5056582;28;20099;-80
2022/06/19 10:52:22;;;;;;;14.25;7.25;;;32.70;24.70;;;;;;5038177;28;20120;-80
2022/06/19 10:55:18;;;;;;;18.98;7.50;;;33.10;26.70;;;;;;4958715;28;20063;-81
2022/06/19 10:58:22;;;;;;;25.67;7.30;;;33.10;26.30;;;;;;4974899;28;20027;-79
2022/06/19 11:00:59;;;;;;;21.45;7.00;;;32.90;20.90;;;;;;4974810;28;20110;-80
2022/06/19 11:06:34;;;;;;;22.67;6.30;;;32.90;20.00;;;;;;5056032;28;20043;-80
2022/06/19 11:09:07;;;;;;;26.98;6.75;;;32.90;20.70;;;;;;5037919;28;20025;-80
2022/06/19 11:11:37;;;;;;;26.20;6.40;;;33.00;20.40;;;;;;5037579;28;20087;-80
2022/06/19 11:14:10;;;;;;;27.55;6.97;;;33.10;20.60;;;;;;5037722;28;20075;-80
2022/06/19 11:16:57;;;;;;;24.20;7.18;;;33.30;21.00;;;;;;5037959;28;20474;-80
2022/06/19 11:19:45;;;;;;;23.30;6.93;;;33.40;21.10;;;;;;5038024;28;20075;-80
2022/06/19 11:22:41;;;;;;;24.60;7.07;;;33.60;20.40;;;;;;5037503;28;20071;-80
2022/06/19 11:25:18;;;;;;;20.17;6.65;;;33.60;20.30;;;;;;5037235;28;20488;-80
2022/06/19 11:28:22;;;;;;;20.27;6.65;;;33.70;20.90;;;;;;5037497;28;20057;-80
2022/06/19 11:30:52;;;;;;;25.00;6.88;;;34.10;20.90;;;;;;5032495;28;20037;-80
2022/06/19 11:33:32;;;;;;;17.52;7.28;;;34.40;21.40;;;;;;5037208;28;20474;-80
2022/06/19 11:36:03;;;;;;;19.55;7.65;;;34.70;21.00;;;;;;5037458;28;20025;-81
2022/06/19 11:38:45;;;;;;;26.23;7.75;;;34.80;21.20;;;;;;5053982;28;20020;-80
2022/06/19 11:41:36;;;;;;;19.50;7.60;;;34.70;21.00;;;;;;5036358;28;20033;-81
2022/06/19 11:44:27;;;;;;;26.65;7.00;;;34.60;21.20;;;;;;5053731;28;20028;-81
2022/06/19 11:46:56;;;;;;;16.92;6.80;;;34.50;20.70;;;;;;5032406;28;20037;-81
2022/06/19 11:49:30;;;;;;;19.63;7.07;;;34.60;21.40;;;;;;5053723;28;20021;-81
2022/06/19 11:52:00;;;;;;;22.95;8.15;;;34.30;22.70;;;;;;5053565;28;20032;-80
2022/06/19 11:54:42;;;;;;;29.08;6.82;;;34.50;21.70;;;;;;5054010;28;20025;-81
2022/06/19 11:57:25;;;;;;;17.63;7.07;;;34.40;20.60;;;;;;5054777;28;20025;-81
2022/06/19 11:59:54;;;;;;;18.42;6.85;;;34.50;22.00;;;;;;5036969;28;20032;-80
2022/06/19 12:02:25;;;;;;;19.23;6.35;;;34.80;20.60;;;;;;5036826;28;20136;-81
2022/06/19 12:04:54;;;;;;;17.40;7.05;;;34.70;18.90;;;;;;5037288;28;20017;-81
2022/06/19 12:07:24;;;;;;;28.92;6.88;;;34.60;19.10;;;;;;5020237;28;20025;-80
2022/06/19 12:10:06;;;;;;;20.08;7.10;;;34.70;19.00;;;;;;5036784;28;20029;-80
2022/06/19 12:12:33;;;;;;;16.85;6.30;;;34.90;19.10;;;;;;5036803;28;20025;-80
2022/06/19 12:15:20;;;;;;;21.08;7.30;;;34.80;19.50;;;;;;5020280;28;20112;-80
2022/06/19 12:17:46;;;;;;;25.20;6.75;;;34.90;18.30;;;;;;5036704;28;20055;-80
2022/06/19 12:20:11;;;;;;;15.45;6.75;;;34.80;18.40;;;;;;5036589;28;20021;-80
2022/06/19 12:22:52;;;;;;;18.17;7.30;;;34.80;19.10;;;;;;5036201;28;20040;-81
2022/06/19 12:25:33;;;;;;;20.92;6.85;;;34.60;19.80;;;;;;5036590;28;20072;-80
2022/06/19 12:28:17;;;;;;;24.27;6.82;;;34.80;19.60;;;;;;5036480;28;20374;-81
2022/06/19 12:30:58;;;;;;;19.73;6.97;;;35.20;19.10;;;;;;5036559;28;20103;-81
2022/06/19 12:33:33;;;;;;;22.45;7.47;;;35.20;19.20;;;;;;5054214;28;20028;-81
2022/06/19 12:36:00;;;;;;;14.85;7.45;;;35.40;18.70;;;;;;5020567;28;20056;-80
2022/06/19 12:38:31;;;;;;;12.70;6.10;;;35.40;18.30;;;;;;5036336;28;20029;-82
2022/06/19 12:41:08;;;;;;;15.90;6.65;;;35.40;18.80;;;;;;5036021;28;20029;-81
2022/06/19 12:43:42;;;;;;;16.08;6.47;;;35.30;18.70;;;;;;5036215;28;20545;-81
2022/06/19 12:46:26;;;;;;;21.63;7.20;;;35.40;18.50;;;;;;5033486;28;20068;-81
2022/06/19 12:49:29;;;;;;;17.70;7.43;;;35.40;19.00;;;;;;5016406;28;20486;-81
2022/06/19 12:52:18;;;;;;;16.73;6.38;;;35.40;18.40;;;;;;5016129;28;20040;-81
2022/06/19 12:55:14;;;;;;;18.75;7.18;;;35.30;18.80;;;;;;5016269;28;20057;-81
2022/06/19 12:57:56;;;;;;;28.05;7.43;;;35.30;18.20;;;;;;5016087;28;20481;-81
2022/06/19 13:00:34;;;;;;;19.25;6.85;;;35.20;18.60;;;;;;5032867;28;20022;-81
2022/06/19 13:03:38;;;;;;;21.80;7.35;;;35.20;18.70;;;;;;5015799;28;20033;-81
2022/06/19 13:06:33;;;;;;;24.77;6.82;;;35.10;18.60;;;;;;5016100;28;20018;-80
2022/06/19 13:09:22;;;;;;;18.65;6.10;;;35.20;18.00;;;;;;5015795;28;20120;-80
2022/06/19 13:12:06;;;;;;;20.98;6.10;;;35.40;17.80;;;;;;5033763;28;20537;-80